Time;durP1;ratioP1;P1;durP2;ratioP2;P2;SDS_P1;SDS_P2;PMS_P1;PMS_P2;Temp;Humidity;BMP_temperature;BMP_pressure;BME280_temperature;BME280_humidity;BME280_pressure;Samples;Min_cycle;Max_cycle;Signal;HPM_P1;HPM_P2
2024/01/23 00:00:21;;;;;;;22.73;3.55;;;;;;;5.88;100.00;100410.88;4974986;28;20556;-40
2024/01/23 00:02:47;;;;;;;22.75;3.95;;;;;;;5.88;100.00;100397.59;4971552;28;20179;-40
2024/01/23 00:05:12;;;;;;;19.73;4.18;;;;;;;5.81;100.00;100415.47;4956194;28;20206;-43
2024/01/23 00:07:38;;;;;;;29.27;4.15;;;;;;;5.87;100.00;100420.66;4955666;28;20164;-42
2024/01/23 00:10:04;;;;;;;27.25;5.55;;;;;;;5.78;100.00;100413.78;4955873;28;20712;-41
2024/01/23 00:12:30;;;;;;;23.15;3.65;;;;;;;5.87;100.00;100423.31;4973125;28;20284;-42
2024/01/23 00:14:57;;;;;;;21.50;3.58;;;;;;;5.98;100.00;100428.38;4975222;28;20276;-42
2024/01/23 00:17:22;;;;;;;24.00;4.40;;;;;;;5.92;100.00;100409.91;4975308;28;20189;-41
2024/01/23 00:19:48;;;;;;;31.80;3.92;;;;;;;5.91;100.00;100418.81;4975124;28;20214;-39
2024/01/23 00:22:13;;;;;;;21.48;3.58;;;;;;;5.90;100.00;100406.41;4974920;28;20170;-42
2024/01/23 00:24:39;;;;;;;25.95;3.95;;;;;;;5.90;100.00;100433.88;4975094;28;20158;-43
2024/01/23 00:27:04;;;;;;;19.00;4.18;;;;;;;5.92;100.00;100426.72;4975058;28;20175;-43
2024/01/23 00:29:30;;;;;;;24.77;3.67;;;;;;;5.93;100.00;100424.94;4975133;28;20177;-40
2024/01/23 00:31:55;;;;;;;23.17;4.15;;;;;;;5.91;100.00;100418.81;4974786;28;20254;-40
2024/01/23 00:34:21;;;;;;;21.83;4.38;;;;;;;5.81;100.00;100411.97;4974473;28;20633;-41
2024/01/23 00:36:46;;;;;;;22.92;4.18;;;;;;;5.95;100.00;100412.53;4966549;28;20256;-40
2024/01/23 00:39:12;;;;;;;25.80;4.05;;;;;;;5.85;100.00;100414.50;4974514;28;20214;-41
2024/01/23 00:41:38;;;;;;;27.65;3.53;;;;;;;5.90;100.00;100419.69;4974606;28;20223;-41
2024/01/23 00:44:04;;;;;;;22.90;4.10;;;;;;;5.81;100.00;100426.13;4960823;28;20183;-42
2024/01/23 00:46:29;;;;;;;21.65;4.00;;;;;;;5.82;100.00;100432.34;4964247;28;20679;-42
2024/01/23 00:48:55;;;;;;;19.80;3.70;;;;;;;5.77;100.00;100440.41;4974309;28;20213;-39
2024/01/23 00:51:20;;;;;;;23.10;3.83;;;;;;;5.81;100.00;100443.84;4970038;28;20230;-41
2024/01/23 00:53:46;;;;;;;29.85;3.20;;;;;;;5.75;100.00;100439.56;4967146;28;20507;-42
2024/01/23 00:56:12;;;;;;;15.75;3.60;;;;;;;5.73;100.00;100458.22;4959393;28;20210;-41
2024/01/23 00:58:37;;;;;;;22.98;4.10;;;;;;;5.84;100.00;100443.78;4969224;28;20194;-42
2024/01/23 01:01:03;;;;;;;22.33;4.55;;;;;;;5.72;100.00;100451.13;4972495;28;20224;-39
2024/01/23 01:03:29;;;;;;;28.10;3.95;;;;;;;5.70;100.00;100433.50;4974087;28;20233;-40
2024/01/23 01:05:55;;;;;;;18.75;3.78;;;;;;;5.72;100.00;100456.47;4973768;28;20676;-44
2024/01/23 01:08:20;;;;;;;23.00;3.95;;;;;;;5.72;100.00;100456.47;4957993;28;20193;-40
2024/01/23 01:10:47;;;;;;;21.02;3.58;;;;;;;5.68;100.00;100460.09;4954897;28;20263;-41
2024/01/23 01:13:12;;;;;;;17.60;3.75;;;;;;;5.73;100.00;100468.84;4969379;28;20285;-41
2024/01/23 01:15:38;;;;;;;24.45;4.32;;;;;;;5.70;100.00;100465.38;4972477;28;20202;-43
2024/01/23 01:18:06;;;;;;;22.02;4.25;;;;;;;5.64;100.00;100469.09;4965924;28;20595;-40
2024/01/23 01:20:32;;;;;;;19.17;3.70;;;;;;;5.53;100.00;100481.72;4966128;28;20201;-42
2024/01/23 01:22:57;;;;;;;26.67;3.90;;;;;;;5.50;100.00;100490.63;4973675;28;20265;-43
2024/01/23 01:25:24;;;;;;;18.73;4.22;;;;;;;5.36;100.00;100490.97;4973616;28;20538;-42
2024/01/23 01:27:50;;;;;;;23.40;3.72;;;;;;;5.32;100.00;100489.28;4973666;28;20189;-40
2024/01/23 01:30:15;;;;;;;24.48;4.38;;;;;;;5.36;100.00;100501.59;4973621;28;20427;-41
2024/01/23 01:32:41;;;;;;;26.88;4.68;;;;;;;5.27;100.00;100511.53;4973457;28;20174;-41
2024/01/23 01:35:07;;;;;;;29.52;6.13;;;;;;;5.39;100.00;100505.09;4973404;28;20216;-41
2024/01/23 01:37:33;;;;;;;23.92;4.75;;;;;;;5.42;100.00;100512.97;4980567;28;20210;-41
2024/01/23 01:39:58;;;;;;;28.45;4.30;;;;;;;5.35;100.00;100512.25;4973545;28;20209;-41
2024/01/23 01:42:24;;;;;;;29.60;4.15;;;;;;;5.39;100.00;100518.38;4973451;28;20181;-42
2024/01/23 01:44:50;;;;;;;22.90;3.30;;;;;;;5.42;100.00;100534.22;4973243;28;20201;-40
2024/01/23 01:47:17;;;;;;;21.23;3.65;;;;;;;5.39;100.00;100529.00;4973347;28;20196;-42
2024/01/23 01:49:43;;;;;;;19.00;3.63;;;;;;;5.36;100.00;100527.28;4965216;28;20179;-41
2024/01/23 01:52:10;;;;;;;18.75;3.55;;;;;;;5.31;100.00;100526.50;4975399;23;20307;-43
2024/01/23 01:54:40;;;;;;;25.23;3.08;;;;;;;5.34;100.00;100518.47;4962073;28;20573;-43
2024/01/23 01:57:07;;;;;;;26.85;4.50;;;;;;;5.28;100.00;100526.56;4949102;28;20206;-44
2024/01/23 01:59:33;;;;;;;24.10;4.10;;;;;;;5.25;100.00;100526.66;4946509;28;20245;-41
2024/01/23 02:02:00;;;;;;;27.10;5.10;;;;;;;5.23;100.00;100531.97;4946765;28;20191;-42
2024/01/23 02:04:25;;;;;;;27.05;4.55;;;;;;;5.19;100.00;100524.13;4946906;28;20663;-40
2024/01/23 02:06:51;;;;;;;21.33;3.38;;;;;;;5.22;100.00;100545.28;4947414;28;20215;-40
2024/01/23 02:09:17;;;;;;;23.15;4.00;;;;;;;5.26;100.00;100542.53;4947125;28;20302;-42
2024/01/23 02:11:56;;;;;;;28.52;4.57;;;;;;;5.26;100.00;100539.00;4945537;28;20210;-42
2024/01/23 02:14:25;;;;;;;21.88;4.18;;;;;;;5.27;100.00;100538.09;4957852;28;20194;-40
2024/01/23 02:16:50;;;;;;;22.15;3.40;;;;;;;5.21;100.00;100549.72;4947767;28;20210;-43
2024/01/23 02:19:16;;;;;;;22.73;3.47;;;;;;;5.24;100.00;100539.03;4944868;28;20210;-43
2024/01/23 02:21:42;;;;;;;21.83;4.25;;;;;;;5.18;100.00;100533.84;4943985;28;20190;-43
2024/01/23 02:24:07;;;;;;;20.85;3.80;;;;;;;5.16;100.00;100539.22;4945152;28;20249;-41
2024/01/23 02:26:33;;;;;;;23.20;4.28;;;;;;;5.12;100.00;100557.91;4944905;28;20214;-42
2024/01/23 02:28:58;;;;;;;18.98;3.53;;;;;;;5.18;100.00;100535.63;4944381;28;20209;-42
2024/01/23 02:31:24;;;;;;;24.20;4.45;;;;;;;5.15;100.00;100549.84;4945577;28;20406;-42
2024/01/23 02:33:49;;;;;;;22.77;3.65;;;;;;;5.14;100.00;100554.28;4941988;28;20213;-42
2024/01/23 02:36:15;;;;;;;17.85;3.28;;;;;;;5.11;100.00;100548.16;4952448;28;20566;-42
2024/01/23 02:38:41;;;;;;;25.58;3.95;;;;;;;5.06;100.00;100550.91;4947831;28;20202;-43
2024/01/23 02:41:06;;;;;;;20.63;4.10;;;;;;;5.09;100.00;100553.50;4942856;28;20186;-43
2024/01/23 02:43:32;;;;;;;29.33;4.72;;;;;;;5.07;100.00;100549.13;4950326;28;20183;-41
2024/01/23 02:45:58;;;;;;;19.77;3.85;;;;;;;5.07;100.00;100541.16;4953500;28;20217;-44
2024/01/23 02:48:23;;;;;;;20.42;3.75;;;;;;;5.13;100.00;100546.34;4948803;28;20198;-44
2024/01/23 02:50:49;;;;;;;27.42;4.72;;;;;;;5.10;100.00;100530.50;4945958;28;20183;-41
2024/01/23 02:53:14;;;;;;;25.02;4.43;;;;;;;5.16;100.00;100535.69;4945929;28;20289;-41
2024/01/23 02:55:40;;;;;;;33.97;5.03;;;;;;;5.20;100.00;100540.00;4947065;28;20237;-42
2024/01/23 02:58:05;;;;;;;21.75;4.35;;;;;;;5.27;100.00;100532.78;4950302;28;20205;-44
2024/01/23 03:00:32;;;;;;;19.48;4.68;;;;;;;5.27;100.00;100540.75;4948438;28;20221;-41
2024/01/23 03:02:58;;;;;;;31.63;4.75;;;;;;;5.31;100.00;100539.78;4948712;28;20643;-40
2024/01/23 03:05:24;;;;;;;32.47;4.97;;;;;;;5.27;100.00;100543.41;4948809;28;20209;-42
2024/01/23 03:07:50;;;;;;;24.95;4.82;;;;;;;5.27;100.00;100538.09;4947346;28;20186;-43
2024/01/23 03:10:16;;;;;;;26.15;4.50;;;;;;;5.23;100.00;100545.25;4948821;28;20178;-42
2024/01/23 03:12:41;;;;;;;26.95;4.72;;;;;;;5.33;100.00;100535.31;4945009;28;20280;-41
2024/01/23 03:15:07;;;;;;;23.50;4.13;;;;;;;5.25;100.00;100539.94;4949178;28;20194;-42
2024/01/23 03:17:33;;;;;;;21.80;3.90;;;;;;;5.34;100.00;100542.38;4947266;28;20274;-42
2024/01/23 03:19:59;;;;;;;28.10;5.15;;;;;;;5.29;100.00;100545.13;4949044;28;20198;-44
2024/01/23 03:22:25;;;;;;;25.75;5.47;;;;;;;5.25;100.00;100555.88;4946217;28;20749;-39
2024/01/23 03:24:50;;;;;;;25.98;4.72;;;;;;;5.19;100.00;100572.78;4945491;28;20622;-42
2024/01/23 03:27:16;;;;;;;30.63;5.07;;;;;;;5.11;100.00;100591.50;4948625;28;20270;-41
2024/01/23 03:29:44;;;;;;;22.10;4.03;;;;;;;5.07;100.00;100591.59;4944299;28;20211;-43
2024/01/23 03:32:11;;;;;;;20.77;4.18;;;;;;;5.07;100.00;100588.94;4947290;28;20199;-42
2024/01/23 03:34:38;;;;;;;31.40;5.57;;;;;;;4.87;100.00;100605.25;4947400;28;20170;-45
2024/01/23 03:37:04;;;;;;;28.52;5.50;;;;;;;4.71;100.00;100594.06;4945381;28;20199;-43
2024/01/23 03:39:30;;;;;;;34.35;5.22;;;;;;;4.54;100.00;100616.44;4945821;28;20590;-43
2024/01/23 03:41:56;;;;;;;24.63;4.15;;;;;;;4.66;100.00;100610.06;4950259;28;20187;-44
2024/01/23 03:44:23;;;;;;;35.70;4.85;;;;;;;4.70;100.00;100605.56;4947789;28;20672;-43
2024/01/23 03:46:49;;;;;;;28.50;5.45;;;;;;;4.63;100.00;100598.63;4946888;28;20218;-44
2024/01/23 03:49:15;;;;;;;31.30;4.45;;;;;;;4.63;100.00;100626.03;4944454;28;20176;-43
2024/01/23 03:51:40;;;;;;;31.98;5.50;;;;;;;4.57;100.00;100615.53;4948078;28;20225;-44
2024/01/23 03:54:06;;;;;;;34.30;5.85;;;;;;;4.66;100.00;100646.34;4943306;28;20262;-43
2024/01/23 03:56:31;;;;;;;28.77;5.20;;;;;;;4.69;100.00;100630.34;4948559;28;20194;-43
2024/01/23 03:58:57;;;;;;;26.52;4.30;;;;;;;4.63;100.00;100630.47;4951673;28;20183;-43
2024/01/23 04:01:22;;;;;;;28.52;5.45;;;;;;;4.58;100.00;100632.31;4949376;28;20201;-43
2024/01/23 04:03:48;;;;;;;29.48;4.90;;;;;;;4.56;100.00;100652.69;4947269;28;20645;-43
2024/01/23 04:06:13;;;;;;;40.75;5.60;;;;;;;4.58;100.00;100646.47;4947821;28;20211;-42
2024/01/23 04:08:39;;;;;;;27.30;4.85;;;;;;;4.61;100.00;100654.34;4947048;28;20213;-42
2024/01/23 04:11:04;;;;;;;22.85;4.55;;;;;;;4.54;100.00;100658.88;4947005;28;20175;-44
2024/01/23 04:13:30;;;;;;;25.48;4.30;;;;;;;4.58;100.00;100666.81;4950225;28;20217;-41
2024/01/23 04:15:56;;;;;;;26.83;4.78;;;;;;;4.53;100.00;100673.06;4947510;28;20198;-44
2024/01/23 04:18:21;;;;;;;37.35;4.75;;;;;;;4.57;100.00;100654.44;4947829;28;20189;-43
2024/01/23 04:20:47;;;;;;;29.88;5.25;;;;;;;4.59;100.00;100680.06;4945459;28;20254;-42
2024/01/23 04:23:12;;;;;;;33.63;5.65;;;;;;;4.53;100.00;100696.09;4950154;28;20179;-43
2024/01/23 04:25:38;;;;;;;29.75;4.93;;;;;;;4.46;100.00;100695.31;4948204;28;20229;-43
2024/01/23 04:28:03;;;;;;;32.90;6.00;;;;;;;4.45;100.00;100696.19;4948371;28;20174;-45
2024/01/23 04:30:29;;;;;;;33.03;4.90;;;;;;;4.48;100.00;100677.59;4947980;28;20186;-41
2024/01/23 04:32:54;;;;;;;30.35;4.78;;;;;;;4.43;100.00;100692.69;4944424;28;20580;-43
2024/01/23 04:35:20;;;;;;;35.15;5.28;;;;;;;4.43;100.00;100687.38;4945170;28;20257;-43
2024/01/23 04:37:45;;;;;;;30.58;5.28;;;;;;;4.51;100.00;100693.44;4947458;28;20183;-43
2024/01/23 04:40:11;;;;;;;33.00;5.22;;;;;;;4.51;100.00;100688.13;4953467;28;20209;-45
2024/01/23 04:42:37;;;;;;;25.52;5.03;;;;;;;4.56;100.00;100690.72;4944489;28;20185;-45
2024/01/23 04:45:03;;;;;;;28.23;5.07;;;;;;;4.54;100.00;100704.00;4951349;28;20764;-43
2024/01/23 04:47:28;;;;;;;28.13;4.55;;;;;;;4.61;100.00;100701.25;4961785;28;20190;-42
2024/01/23 04:49:54;;;;;;;25.73;4.30;;;;;;;4.61;100.00;100714.53;4947233;28;20186;-43
2024/01/23 04:52:20;;;;;;;30.27;5.20;;;;;;;4.56;100.00;100703.97;4951828;28;20226;-43
2024/01/23 04:54:45;;;;;;;39.80;5.20;;;;;;;4.58;100.00;100714.56;4943294;28;20180;-44
2024/01/23 04:57:14;;;;;;;25.70;5.13;;;;;;;4.58;100.00;100711.94;4944934;28;20665;-42
2024/01/23 04:59:40;;;;;;;28.02;4.25;;;;;;;4.57;100.00;100732.28;4946299;28;20235;-44
2024/01/23 05:02:05;;;;;;;33.28;5.75;;;;;;;4.56;100.00;100727.84;4946729;28;20766;-42
2024/01/23 05:04:31;;;;;;;28.42;4.85;;;;;;;4.66;100.00;100716.22;4948243;28;20245;-42
2024/01/23 05:06:56;;;;;;;37.13;5.30;;;;;;;4.67;100.00;100733.00;4947989;28;20558;-43
2024/01/23 05:09:22;;;;;;;27.38;5.38;;;;;;;4.69;100.00;100724.09;4945710;28;20193;-42
2024/01/23 05:11:47;;;;;;;35.72;4.65;;;;;;;4.70;100.00;100727.63;4946072;28;20166;-42
2024/01/23 05:14:16;;;;;;;41.83;6.10;;;;;;;4.75;100.00;100741.72;4945730;28;20191;-42
2024/01/23 05:16:41;;;;;;;31.83;5.45;;;;;;;4.70;100.00;100724.97;4942638;28;20230;-43
2024/01/23 05:19:07;;;;;;;37.70;5.28;;;;;;;4.70;100.00;100724.97;4947002;28;20246;-44
2024/01/23 05:21:33;;;;;;;23.48;4.40;;;;;;;4.72;100.00;100741.75;4943981;28;20195;-44
2024/01/23 05:23:58;;;;;;;35.50;6.10;;;;;;;4.70;100.00;100747.13;4949959;28;20226;-42
2024/01/23 05:26:24;;;;;;;37.70;5.78;;;;;;;4.76;100.00;100751.44;4943952;28;20321;-42
2024/01/23 05:28:49;;;;;;;48.33;5.88;;;;;;;4.69;100.00;100752.44;4946250;28;20191;-43
2024/01/23 05:31:15;;;;;;;44.03;6.82;;;;;;;4.75;100.00;100744.38;4948247;28;20265;-42
2024/01/23 05:33:40;;;;;;;36.85;6.28;;;;;;;4.75;100.00;100753.22;4940739;28;20191;-44
2024/01/23 05:36:06;;;;;;;35.90;5.57;;;;;;;4.80;100.00;100761.09;4949167;28;20415;-45
2024/01/23 05:38:32;;;;;;;27.65;5.57;;;;;;;4.78;100.00;100746.97;4943984;28;20189;-44
2024/01/23 05:40:57;;;;;;;37.15;7.13;;;;;;;4.79;100.00;100750.50;4943320;28;20674;-43
2024/01/23 05:43:23;;;;;;;42.13;6.00;;;;;;;4.75;100.00;100758.53;4950702;28;20277;-44
2024/01/23 05:45:49;;;;;;;41.67;6.22;;;;;;;4.79;100.00;100759.38;4944260;28;20219;-42
2024/01/23 05:48:15;;;;;;;35.55;5.20;;;;;;;4.81;100.00;100772.59;4946577;28;20651;-43
2024/01/23 05:50:41;;;;;;;40.88;5.90;;;;;;;4.85;100.00;100780.47;4941050;28;20183;-43
2024/01/23 05:53:06;;;;;;;37.15;5.50;;;;;;;4.93;100.00;100778.59;4947627;28;20245;-42
2024/01/23 05:55:32;;;;;;;50.75;7.82;;;;;;;4.90;100.00;100786.63;4943267;28;20823;-42
2024/01/23 05:57:58;;;;;;;39.85;6.30;;;;;;;4.94;100.00;100790.97;4945544;28;20679;-43
2024/01/23 06:00:23;;;;;;;42.15;6.47;;;;;;;4.99;100.00;100790.91;4942417;28;20293;-42
2024/01/23 06:02:49;;;;;;;37.60;5.53;;;;;;;4.95;100.00;100802.47;4945204;28;20286;-42
2024/01/23 06:05:14;;;;;;;36.88;5.78;;;;;;;4.95;100.00;100819.25;4947309;28;20572;-43
2024/01/23 06:07:43;;;;;;;35.83;5.25;;;;;;;4.89;100.00;100824.66;4942955;28;20555;-42
2024/01/23 06:10:09;;;;;;;27.85;4.38;;;;;;;4.90;100.00;100826.44;4953339;28;20195;-42
2024/01/23 06:12:35;;;;;;;36.50;5.63;;;;;;;4.87;100.00;100831.78;4943721;28;20170;-43
2024/01/23 06:15:01;;;;;;;36.28;5.03;;;;;;;4.84;100.00;100825.66;4946289;28;20520;-41
2024/01/23 06:17:26;;;;;;;25.42;4.55;;;;;;;4.91;100.00;100840.56;4947359;28;20193;-43
2024/01/23 06:19:51;;;;;;;27.05;4.72;;;;;;;4.94;100.00;100836.13;4942478;28;20211;-42
2024/01/23 06:22:17;;;;;;;43.25;5.80;;;;;;;4.98;100.00;100830.75;4948232;28;20179;-41
2024/01/23 06:25:03;;;;;;;33.25;5.47;;;;;;;5.08;100.00;100857.13;4947393;28;20202;-43
2024/01/23 06:27:29;;;;;;;28.40;6.40;;;;;;;5.09;100.00;100852.69;4945698;28;20649;-43
2024/01/23 06:29:54;;;;;;;27.73;4.90;;;;;;;5.10;100.00;100849.16;4945639;28;20241;-43
2024/01/23 06:32:20;;;;;;;37.03;5.60;;;;;;;5.09;100.00;100863.31;4945794;28;20192;-42
2024/01/23 06:34:45;;;;;;;27.73;4.85;;;;;;;5.16;100.00;100865.00;4942616;28;20688;-42
2024/01/23 06:37:11;;;;;;;23.70;4.43;;;;;;;5.25;100.00;100874.59;4943340;28;20179;-43
2024/01/23 06:39:36;;;;;;;31.58;5.07;;;;;;;5.24;100.00;100886.97;4942338;28;20721;-41
2024/01/23 06:42:02;;;;;;;29.08;4.72;;;;;;;5.20;100.00;100871.13;4947511;28;20696;-42
2024/01/23 06:44:28;;;;;;;23.70;4.50;;;;;;;5.09;100.00;100884.56;4941686;28;20976;-42
2024/01/23 06:46:53;;;;;;;28.35;4.90;;;;;;;4.99;100.00;100888.28;4941743;28;20306;-42
2024/01/23 06:49:19;;;;;;;31.83;5.47;;;;;;;5.00;100.00;100900.63;4945019;28;20322;-43
2024/01/23 06:51:45;;;;;;;32.00;5.95;;;;;;;4.99;100.00;100914.81;4944526;28;20191;-43
2024/01/23 06:54:10;;;;;;;28.80;6.18;;;;;;;5.03;100.00;100922.72;4945225;28;20179;-43
2024/01/23 06:56:36;;;;;;;28.20;5.35;;;;;;;5.10;100.00;100923.50;4943905;28;20230;-42
2024/01/23 06:59:03;;;;;;;31.00;4.93;;;;;;;5.08;100.00;100925.31;4943413;28;20681;-42
2024/01/23 07:01:28;;;;;;;40.08;6.88;;;;;;;5.10;100.00;100939.44;4942178;28;20187;-42
2024/01/23 07:03:54;;;;;;;26.00;4.97;;;;;;;5.18;100.00;100932.22;4941667;28;20282;-43
2024/01/23 07:06:19;;;;;;;26.30;4.85;;;;;;;5.25;100.00;100933.91;4944538;28;20212;-41
2024/01/23 07:08:45;;;;;;;38.40;6.13;;;;;;;5.23;100.00;100949.00;4944772;28;20362;-42
2024/01/23 07:11:12;;;;;;;29.77;4.93;;;;;;;5.31;100.00;100949.78;4945247;28;20609;-43
2024/01/23 07:13:37;;;;;;;37.60;6.82;;;;;;;5.31;100.00;100973.69;4945096;28;20222;-42
2024/01/23 07:16:03;;;;;;;34.97;5.68;;;;;;;5.28;100.00;100970.19;4945103;28;20195;-41
2024/01/23 07:18:29;;;;;;;33.42;5.88;;;;;;;5.35;100.00;100986.00;4944863;28;20653;-42
2024/01/23 07:20:54;;;;;;;35.13;5.25;;;;;;;5.41;100.00;100989.47;4944352;28;20221;-42
2024/01/23 07:23:20;;;;;;;36.42;5.85;;;;;;;5.41;100.00;101021.38;4947442;28;20250;-40
2024/01/23 07:25:45;;;;;;;31.85;4.90;;;;;;;5.33;100.00;101017.00;4953878;28;20281;-42
2024/01/23 07:28:11;;;;;;;27.80;5.85;;;;;;;5.45;100.00;101013.31;4951030;28;20190;-42
2024/01/23 07:30:36;;;;;;;32.22;6.47;;;;;;;5.42;100.00;101039.91;4948659;28;20171;-43
2024/01/23 07:33:02;;;;;;;32.60;6.30;;;;;;;5.40;100.00;101028.47;4949052;28;20231;-42
2024/01/23 07:35:28;;;;;;;44.70;6.45;;;;;;;5.44;100.00;101037.25;4948281;28;20290;-44
2024/01/23 07:37:53;;;;;;;37.97;6.80;;;;;;;5.39;100.00;101050.59;4948585;28;20638;-43
2024/01/23 07:40:19;;;;;;;41.55;5.57;;;;;;;5.43;100.00;101065.59;4946762;28;20229;-41
2024/01/23 07:42:44;;;;;;;42.05;6.22;;;;;;;5.42;100.00;101057.66;4947963;28;20217;-43
2024/01/23 07:45:11;;;;;;;32.45;5.28;;;;;;;5.49;100.00;101048.72;4951211;28;20709;-43
2024/01/23 07:47:36;;;;;;;30.58;6.40;;;;;;;5.44;100.00;101077.97;4947966;28;20175;-43
2024/01/23 07:50:03;;;;;;;33.95;5.85;;;;;;;5.42;100.00;101076.25;4946121;28;20272;-44
2024/01/23 07:52:31;;;;;;;42.50;6.43;;;;;;;5.34;100.00;101093.19;4940581;28;20225;-46
2024/01/23 07:54:58;;;;;;;34.25;5.45;;;;;;;5.42;100.00;101108.13;4996728;23;20709;-42
2024/01/23 07:57:23;;;;;;;44.58;7.40;;;;;;;5.49;100.00;101101.88;4958457;28;20228;-42
2024/01/23 07:59:49;;;;;;;32.53;5.20;;;;;;;5.40;100.00;101109.94;4949149;28;20624;-43
2024/01/23 08:02:14;;;;;;;35.65;5.60;;;;;;;5.39;100.00;101126.78;4960571;28;20186;-42
2024/01/23 08:04:40;;;;;;;41.85;6.63;;;;;;;5.37;100.00;101138.28;4957639;28;20214;-42
2024/01/23 08:07:05;;;;;;;31.65;6.32;;;;;;;5.45;100.00;101132.03;4961818;28;20194;-43
2024/01/23 08:09:31;;;;;;;27.30;5.22;;;;;;;5.30;100.00;101144.59;4949107;28;20174;-43
2024/01/23 08:11:56;;;;;;;31.52;5.32;;;;;;;5.43;100.00;101152.44;4950045;28;20589;-44
2024/01/23 08:14:22;;;;;;;31.80;5.38;;;;;;;5.38;100.00;101157.81;4959857;28;20194;-43
2024/01/23 08:16:47;;;;;;;30.20;5.00;;;;;;;5.31;100.00;101164.06;4956780;28;20202;-41
2024/01/23 08:19:13;;;;;;;37.53;5.40;;;;;;;5.30;100.00;101168.50;4957681;28;20206;-43
2024/01/23 08:21:38;;;;;;;29.55;5.05;;;;;;;5.34;100.00;101172.00;4956624;28;20182;-43
2024/01/23 08:24:04;;;;;;;27.77;4.90;;;;;;;5.34;100.00;101183.50;4949838;28;20604;-42
2024/01/23 08:26:30;;;;;;;27.67;5.25;;;;;;;5.44;100.00;101170.13;4946538;28;20217;-42
2024/01/23 08:28:56;;;;;;;25.65;4.22;;;;;;;5.47;100.00;101178.94;4958299;28;20313;-43
2024/01/23 08:31:22;;;;;;;24.98;4.47;;;;;;;5.52;100.00;101170.91;4954902;28;20190;-42
2024/01/23 08:33:47;;;;;;;31.88;4.72;;;;;;;5.58;100.00;101197.44;4960442;28;20274;-44
2024/01/23 08:36:13;;;;;;;34.88;4.90;;;;;;;5.60;100.00;101195.63;4962194;28;20230;-43
2024/01/23 08:38:38;;;;;;;20.17;4.15;;;;;;;5.58;100.00;101208.94;4951470;28;20241;-42
2024/01/23 08:41:04;;;;;;;24.45;4.47;;;;;;;5.69;100.00;101208.81;4957300;28;20187;-42
2024/01/23 08:43:29;;;;;;;25.55;4.47;;;;;;;5.73;100.00;101210.53;4958472;28;20642;-45
2024/01/23 08:45:55;;;;;;;31.58;5.28;;;;;;;5.69;100.00;101208.81;4956176;28;20329;-43
2024/01/23 08:48:22;;;;;;;20.45;4.60;;;;;;;5.69;100.00;101216.78;4962187;28;20201;-44
2024/01/23 08:50:50;;;;;;;29.92;5.05;;;;;;;5.73;100.00;101223.81;4957171;28;20179;-43
2024/01/23 08:53:16;;;;;;;29.17;4.90;;;;;;;5.84;100.00;101228.09;4949348;28;20245;-44
2024/01/23 08:55:42;;;;;;;38.10;5.95;;;;;;;5.73;100.00;101245.09;4953501;28;20293;-43
2024/01/23 08:58:08;;;;;;;31.25;6.13;;;;;;;5.86;100.00;101250.25;4959111;28;20277;-42
2024/01/23 09:00:34;;;;;;;35.47;4.97;;;;;;;5.86;100.00;101255.56;4960510;28;20194;-43
2024/01/23 09:02:59;;;;;;;42.33;5.60;;;;;;;5.84;100.00;101246.72;4959210;28;20193;-41
2024/01/23 09:05:25;;;;;;;23.65;4.88;;;;;;;5.80;100.00;101267.16;4956970;28;20198;-42
2024/01/23 09:07:50;;;;;;;28.50;6.32;;;;;;;5.73;100.00;101265.50;4958028;28;20269;-43
2024/01/23 09:10:16;;;;;;;27.02;5.38;;;;;;;5.70;100.00;101274.34;4950741;28;20637;-44
2024/01/23 09:12:41;;;;;;;29.80;5.57;;;;;;;5.68;100.00;101262.84;4945257;28;20174;-43
2024/01/23 09:15:09;;;;;;;41.55;6.07;;;;;;;5.78;100.00;101296.44;4947771;28;20301;-43
2024/01/23 09:17:35;;;;;;;39.80;5.40;;;;;;;5.60;100.00;101304.59;4945642;28;20187;-43
2024/01/23 09:20:01;;;;;;;41.08;6.03;;;;;;;5.66;100.00;101299.19;4950438;28;20207;-43
2024/01/23 09:22:29;;;;;;;43.78;6.90;;;;;;;5.58;100.00;101314.38;4947580;28;20209;-42
2024/01/23 09:24:54;;;;;;;47.30;5.85;;;;;;;5.58;100.00;101323.22;4946003;28;20178;-45
2024/01/23 09:27:20;;;;;;;41.35;6.75;;;;;;;5.63;100.00;101336.47;4965090;28;20709;-39
2024/01/23 09:29:45;;;;;;;36.78;6.30;;;;;;;5.70;100.00;101343.47;4954189;28;20696;-41
2024/01/23 09:32:11;;;;;;;40.97;7.10;;;;;;;5.77;100.00;101347.84;4954318;28;20183;-41
2024/01/23 09:34:37;;;;;;;43.90;6.47;;;;;;;5.74;100.00;101363.81;4952830;29;20556;-39
2024/01/23 09:37:03;;;;;;;41.70;7.00;;;;;;;5.75;100.00;101356.72;4953946;28;20206;-40
2024/01/23 09:39:28;;;;;;;45.83;6.90;;;;;;;5.73;100.00;101354.09;4953157;29;20206;-41
2024/01/23 09:41:59;;;;;;;39.78;6.78;;;;;;;5.78;100.00;101381.50;4952688;29;20657;-41
2024/01/23 09:44:24;;;;;;;35.25;5.75;;;;;;;5.88;100.00;101362.78;4953240;28;20189;-43
2024/01/23 09:46:51;;;;;;;42.00;6.68;;;;;;;5.90;100.00;101358.34;4953535;28;20780;-41
2024/01/23 09:49:18;;;;;;;45.95;7.05;;;;;;;5.94;100.00;101347.69;4953445;28;20277;-40
2024/01/23 09:51:47;;;;;;;44.42;7.20;;;;;;;5.93;100.00;101363.66;4953459;28;20170;-40
2024/01/23 09:54:14;;;;;;;39.60;6.70;;;;;;;5.94;100.00;101376.94;4953575;28;20214;-40
2024/01/23 09:56:39;;;;;;;31.83;6.35;;;;;;;5.92;100.00;101386.69;4953369;28;20259;-41
2024/01/23 09:59:06;;;;;;;37.47;5.88;;;;;;;5.95;100.00;101402.66;4952183;29;20253;-41
2024/01/23 10:01:33;;;;;;;37.15;6.07;;;;;;;5.97;100.00;101397.34;4953352;28;20182;-42
2024/01/23 10:04:00;;;;;;;33.67;5.95;;;;;;;6.09;100.00;101413.16;4953613;28;20170;-40
2024/01/23 10:06:26;;;;;;;49.22;6.68;;;;;;;6.13;100.00;101416.66;4953175;29;20218;-44
2024/01/23 10:08:51;;;;;;;40.40;7.20;;;;;;;6.05;100.00;101418.53;4953313;28;20633;-40
2024/01/23 10:11:17;;;;;;;52.72;6.47;;;;;;;6.03;100.00;101429.16;4953329;28;20227;-41
2024/01/23 10:13:42;;;;;;;46.53;6.97;;;;;;;6.12;100.00;101430.84;4953472;28;20580;-42
2024/01/23 10:16:10;;;;;;;33.70;6.38;;;;;;;6.11;100.00;101448.59;4953118;28;20194;-41
2024/01/23 10:18:36;;;;;;;42.60;6.32;;;;;;;6.14;100.00;101437.03;4953353;28;20177;-41
2024/01/23 10:21:01;;;;;;;42.92;6.45;;;;;;;6.28;100.00;101455.56;4951854;29;20191;-41
2024/01/23 10:23:27;;;;;;;30.73;5.60;;;;;;;6.17;100.00;101437.91;4953272;28;20174;-40
2024/01/23 10:25:54;;;;;;;45.40;6.45;;;;;;;6.27;100.00;101444.00;4952092;29;20728;-42
2024/01/23 10:28:22;;;;;;;44.08;6.68;;;;;;;6.23;100.00;101457.34;4951717;29;20198;-42
2024/01/23 10:30:48;;;;;;;30.30;5.57;;;;;;;6.25;100.00;101458.22;4952385;28;20170;-41
2024/01/23 10:33:14;;;;;;;40.90;5.93;;;;;;;6.35;100.00;101457.25;4951141;28;20696;-40
2024/01/23 10:35:41;;;;;;;45.83;6.63;;;;;;;6.35;100.00;101452.78;4950809;28;20299;-44
2024/01/23 10:38:10;;;;;;;37.60;6.78;;;;;;;6.38;100.00;101452.78;4950961;28;20205;-39
2024/01/23 10:40:36;;;;;;;30.65;6.05;;;;;;;6.48;100.00;101450.88;4951180;28;20606;-40
2024/01/23 10:43:03;;;;;;;36.58;7.15;;;;;;;6.50;100.00;101450.88;4951446;29;20198;-41
2024/01/23 10:45:31;;;;;;;31.33;5.95;;;;;;;6.50;100.00;101443.75;4952967;28;20198;-41
2024/01/23 10:47:59;;;;;;;35.60;6.28;;;;;;;6.60;100.00;101448.09;4952901;28;20170;-43
2024/01/23 10:50:24;;;;;;;35.75;6.78;;;;;;;6.59;100.00;101448.97;4952477;28;20181;-41
2024/01/23 10:52:50;;;;;;;27.40;5.60;;;;;;;6.63;100.00;101447.16;4953160;28;20191;-41
2024/01/23 10:55:16;;;;;;;28.75;6.50;;;;;;;6.60;100.00;101445.44;4953412;28;20756;-41
2024/01/23 10:57:46;;;;;;;33.95;6.57;;;;;;;6.60;100.00;101456.06;4956728;28;20183;-41
2024/01/23 11:00:17;;;;;;;34.47;5.47;;;;;;;6.59;100.00;101448.97;4956718;28;20191;-41
2024/01/23 11:02:47;;;;;;;40.38;5.80;;;;;;;6.62;100.00;101437.41;4956759;28;20171;-41
2024/01/23 11:05:13;;;;;;;41.63;7.10;;;;;;;6.59;100.00;101454.28;4955074;29;20205;-41
2024/01/23 11:07:58;;;;;;;47.75;5.80;;;;;;;6.63;100.00;101454.28;4956793;28;20261;-40
2024/01/23 11:10:28;;;;;;;34.90;5.90;;;;;;;6.59;100.00;101462.28;4956564;28;20163;-42